createdAt,value
2022-07-28T00:00:12.822Z,100283.00
2022-07-28T00:03:00.772Z,100293.13
2022-07-28T00:05:28.334Z,100292.09
2022-07-28T00:07:56.435Z,100299.03
2022-07-28T00:10:23.834Z,100301.56
2022-07-28T00:12:51.286Z,100286.69
2022-07-28T00:15:18.469Z,100294.81
2022-07-28T00:17:45.636Z,100294.78
2022-07-28T00:20:13.060Z,100299.53
2022-07-28T00:22:43.932Z,100286.03
2022-07-28T00:25:12.149Z,100287.19
2022-07-28T00:27:39.601Z,100286.88
2022-07-28T00:30:07.870Z,100281.25
2022-07-28T00:32:35.099Z,100297.81
2022-07-28T00:35:02.630Z,100294.97
2022-07-28T00:37:29.873Z,100304.06
2022-07-28T00:39:57.466Z,100300.56
2022-07-28T00:42:24.944Z,100301.56
2022-07-28T00:44:52.179Z,100297.63
2022-07-28T00:47:20.261Z,100291.94
2022-07-28T00:49:48.396Z,100303.41
2022-07-28T00:52:17.171Z,100287.72
2022-07-28T00:54:44.571Z,100290.25
2022-07-28T00:57:11.983Z,100298.19
2022-07-28T00:59:39.151Z,100290.06
2022-07-28T01:02:06.888Z,100288.03
2022-07-28T01:04:34.693Z,100296.16
2022-07-28T01:07:17.085Z,100298.88
2022-07-28T01:10:03.579Z,100301.06
2022-07-28T01:12:45.971Z,100294.63
2022-07-28T01:15:36.291Z,100300.06
2022-07-28T01:18:23.351Z,100295.47
2022-07-28T01:20:54.496Z,100300.03
2022-07-28T01:23:33.565Z,100301.75
2022-07-28T01:26:24.888Z,100305.47
2022-07-28T01:29:07.017Z,100311.19
2022-07-28T01:31:40.135Z,100305.97
2022-07-28T01:34:12.910Z,100307.81
2022-07-28T01:36:45.552Z,100297.50
2022-07-28T01:39:15.341Z,100298.16
2022-07-28T01:41:44.444Z,100308.34
2022-07-28T01:44:20.296Z,100298.19
2022-07-28T01:46:49.172Z,100297.69
2022-07-28T01:49:18.359Z,100291.25
2022-07-28T01:51:47.470Z,100299.38
2022-07-28T01:54:17.300Z,100292.09
2022-07-28T01:56:47.082Z,100285.53
2022-07-28T01:59:15.586Z,100293.97
2022-07-28T02:01:45.868Z,100293.28
2022-07-28T02:04:15.783Z,100296.50
2022-07-28T02:06:46.976Z,100299.19
2022-07-28T02:09:14.951Z,100305.63
2022-07-28T02:11:43.179Z,100296.69
2022-07-28T02:14:17.107Z,100299.88
2022-07-28T02:17:08.700Z,100288.56
2022-07-28T02:19:37.680Z,100297.84
2022-07-28T02:22:07.016Z,100298.34
2022-07-28T02:24:35.558Z,100296.34
2022-07-28T02:27:18.362Z,100296.69
2022-07-28T02:29:51.849Z,100298.53
2022-07-28T02:32:33.073Z,100298.19
2022-07-28T02:35:12.160Z,100298.34
2022-07-28T02:37:46.085Z,100303.59
2022-07-28T02:40:16.561Z,100308.50
2022-07-28T02:42:48.281Z,100307.00
2022-07-28T02:45:17.067Z,100318.97
2022-07-28T02:47:52.157Z,100312.38
2022-07-28T02:50:24.633Z,100321.66
2022-07-28T02:52:56.986Z,100319.13
2022-07-28T02:55:25.267Z,100316.41
2022-07-28T02:57:56.852Z,100325.91
2022-07-28T03:00:25.948Z,100327.94
2022-07-28T03:02:55.363Z,100319.16
2022-07-28T03:05:23.238Z,100313.56
2022-07-28T03:07:52.905Z,100316.78
2022-07-28T03:10:32.885Z,100330.50
2022-07-28T03:13:05.399Z,100320.69
2022-07-28T03:15:36.259Z,100327.28
2022-07-28T03:18:05.168Z,100321.69
2022-07-28T03:20:33.090Z,100329.81
2022-07-28T03:23:00.985Z,100318.66
2022-07-28T03:25:50.557Z,100324.75
2022-07-28T03:28:21.422Z,100327.63
2022-07-28T03:30:54.684Z,100329.97
2022-07-28T03:33:22.181Z,100325.88
2022-07-28T03:35:52.505Z,100325.88
2022-07-28T03:38:45.765Z,100332.28
2022-07-28T03:41:15.149Z,100330.63
2022-07-28T03:43:44.006Z,100336.75
2022-07-28T03:46:13.255Z,100347.88
2022-07-28T03:48:41.309Z,100333.16
2022-07-28T03:51:09.095Z,100337.72
2022-07-28T03:53:36.858Z,100343.13
2022-07-28T03:56:04.944Z,100346.19
2022-07-28T03:58:32.205Z,100343.63
2022-07-28T04:00:59.486Z,100342.06
2022-07-28T04:03:42.512Z,100342.84
2022-07-28T04:06:15.753Z,100340.44
2022-07-28T04:08:44.941Z,100343.66
2022-07-28T04:11:12.737Z,100342.72
2022-07-28T04:13:39.992Z,100353.47
2022-07-28T04:16:07.671Z,100341.75
2022-07-28T04:18:35.615Z,100358.16
2022-07-28T04:21:03.124Z,100351.63
2022-07-28T04:23:31.064Z,100363.44
2022-07-28T04:25:58.402Z,100352.47
2022-07-28T04:28:25.821Z,100351.09
2022-07-28T04:30:53.396Z,100356.72
2022-07-28T04:33:20.746Z,100355.97
2022-07-28T04:35:48.117Z,100355.22
2022-07-28T04:38:18.115Z,100373.13
2022-07-28T04:40:49.033Z,100366.75
2022-07-28T04:43:16.748Z,100366.56
2022-07-28T04:45:54.069Z,100370.09
2022-07-28T04:48:23.577Z,100371.59
2022-07-28T04:50:53.043Z,100369.69
2022-07-28T04:53:22.518Z,100362.34
2022-07-28T04:55:53.514Z,100367.28
2022-07-28T04:58:23.094Z,100365.66
2022-07-28T05:00:50.815Z,100372.88
2022-07-28T05:03:19.793Z,100375.91
2022-07-28T05:05:54.025Z,100371.69
2022-07-28T05:08:25.837Z,100375.94
2022-07-28T05:10:54.701Z,100386.13
2022-07-28T05:13:21.906Z,100386.78
2022-07-28T05:15:49.310Z,100385.25
2022-07-28T05:18:16.566Z,100390.66
2022-07-28T05:20:43.764Z,100392.56
2022-07-28T05:23:12.835Z,100396.03
2022-07-28T05:25:40.188Z,100403.19
2022-07-28T05:28:07.393Z,100402.75
2022-07-28T05:30:37.048Z,100398.19
2022-07-28T05:33:04.526Z,100411.41
2022-07-28T05:35:31.727Z,100418.31
2022-07-28T05:37:59.246Z,100405.84
2022-07-28T05:40:27.398Z,100408.69
2022-07-28T05:42:54.883Z,100415.50
2022-07-28T05:45:22.444Z,100425.19
2022-07-28T05:47:52.799Z,100424.53
2022-07-28T05:50:25.398Z,100428.28
2022-07-28T05:52:52.956Z,100423.91
2022-07-28T05:55:20.245Z,100434.44
2022-07-28T05:57:47.522Z,100432.25
2022-07-28T06:00:19.742Z,100440.31
2022-07-28T06:02:49.628Z,100436.56
2022-07-28T06:05:19.487Z,100445.13
2022-07-28T06:07:48.124Z,100446.25
2022-07-28T06:10:21.342Z,100447.94
2022-07-28T06:12:50.944Z,100450.00
2022-07-28T06:15:21.758Z,100448.22
2022-07-28T06:17:52.760Z,100457.00
2022-07-28T06:20:24.038Z,100447.94
2022-07-28T06:22:55.415Z,100449.28
2022-07-28T06:25:25.209Z,100448.38
2022-07-28T06:27:55.153Z,100452.88
2022-07-28T06:30:23.314Z,100462.88
2022-07-28T06:32:50.916Z,100464.28
2022-07-28T06:35:19.309Z,100472.34
2022-07-28T06:37:48.185Z,100475.09
2022-07-28T06:40:17.111Z,100472.34
2022-07-28T06:42:45.703Z,100468.03
2022-07-28T06:45:20.733Z,100475.16
2022-07-28T06:47:50.039Z,100478.56
2022-07-28T06:50:26.163Z,100481.63
2022-07-28T06:52:56.721Z,100478.03
2022-07-28T06:55:24.116Z,100494.28
2022-07-28T06:57:51.616Z,100501.28
2022-07-28T07:00:19.156Z,100492.22
2022-07-28T07:02:46.443Z,100503.34
2022-07-28T07:05:14.100Z,100495.63
2022-07-28T07:07:43.512Z,100503.22
2022-07-28T07:10:11.898Z,100509.88
2022-07-28T07:12:39.568Z,100506.91
2022-07-28T07:15:07.888Z,100515.69
2022-07-28T07:17:37.472Z,100507.84
2022-07-28T07:20:06.458Z,100506.56
2022-07-28T07:22:34.019Z,100511.53
2022-07-28T07:25:13.917Z,100508.28
2022-07-28T07:27:41.326Z,100511.31
2022-07-28T07:30:09.868Z,100516.72
2022-07-28T07:32:37.864Z,100519.41
2022-07-28T07:35:06.457Z,100513.66
2022-07-28T07:37:33.763Z,100519.31
2022-07-28T07:40:02.253Z,100521.16
2022-07-28T07:42:29.663Z,100525.22
2022-07-28T07:44:56.918Z,100526.47
2022-07-28T07:47:24.253Z,100520.72
2022-07-28T07:49:51.857Z,100531.69
2022-07-28T07:52:19.298Z,100541.81
2022-07-28T07:54:46.874Z,100533.06
2022-07-28T07:57:14.378Z,100541.56
2022-07-28T07:59:41.881Z,100547.56
2022-07-28T08:02:09.445Z,100547.78
2022-07-28T08:04:37.744Z,100554.25
2022-07-28T08:07:06.423Z,100544.19
2022-07-28T08:09:34.715Z,100553.75
2022-07-28T08:12:02.370Z,100548.75
2022-07-28T08:14:29.769Z,100565.66
2022-07-28T08:16:59.308Z,100551.44
2022-07-28T08:19:26.939Z,100563.75
2022-07-28T08:21:55.719Z,100549.16
2022-07-28T08:24:33.770Z,100569.16
2022-07-28T08:27:03.069Z,100561.31
2022-07-28T08:29:30.606Z,100565.63
2022-07-28T08:31:57.999Z,100576.84
2022-07-28T08:34:27.966Z,100574.22
2022-07-28T08:37:05.694Z,100580.25
2022-07-28T08:39:34.908Z,100577.53
2022-07-28T08:42:11.135Z,100570.94
2022-07-28T08:44:50.935Z,100575.59
2022-07-28T08:47:19.740Z,100571.66
2022-07-28T08:49:49.396Z,100579.25
2022-07-28T08:52:21.773Z,100573.84
2022-07-28T08:54:50.929Z,100575.84
2022-07-28T08:57:26.580Z,100573.88
2022-07-28T08:59:54.957Z,100577.31
2022-07-28T09:02:23.670Z,100583.28
2022-07-28T09:04:51.238Z,100580.31
2022-07-28T09:07:18.979Z,100583.78
2022-07-28T09:09:49.479Z,100590.81
2022-07-28T09:12:17.514Z,100595.16
2022-07-28T09:14:44.969Z,100602.97
2022-07-28T09:17:12.528Z,100594.19
2022-07-28T09:19:39.842Z,100601.47
2022-07-28T09:22:07.616Z,100599.59
2022-07-28T09:24:41.243Z,100588.13
2022-07-28T09:27:13.409Z,100606.41
2022-07-28T09:29:44.855Z,100591.00
2022-07-28T09:32:14.510Z,100591.94
2022-07-28T09:34:44.013Z,100594.16
2022-07-28T09:37:26.860Z,100611.09
2022-07-28T09:39:59.836Z,100600.31
2022-07-28T09:42:46.479Z,100601.78
2022-07-28T09:45:22.903Z,100604.03
2022-07-28T09:48:08.247Z,100602.28
2022-07-28T09:50:35.897Z,100597.41
2022-07-28T09:53:27.264Z,100592.41
2022-07-28T09:56:02.463Z,100594.28
2022-07-28T09:58:30.461Z,100609.09
2022-07-28T10:01:13.237Z,100600.13
2022-07-28T10:03:42.969Z,100601.06
2022-07-28T10:06:23.465Z,100606.31
2022-07-28T10:08:52.537Z,100603.16
2022-07-28T10:11:26.807Z,100609.78
2022-07-28T10:13:55.365Z,100620.50
2022-07-28T10:16:26.219Z,100615.97
2022-07-28T10:18:53.612Z,100622.88
2022-07-28T10:21:23.861Z,100625.13
2022-07-28T10:23:56.961Z,100622.16
2022-07-28T10:26:38.217Z,100624.91
2022-07-28T10:29:07.868Z,100630.78
2022-07-28T10:31:44.884Z,100620.75
2022-07-28T10:34:24.836Z,100629.63
2022-07-28T10:36:56.850Z,100626.63
2022-07-28T10:39:31.956Z,100635.84
2022-07-28T10:41:59.730Z,100642.78
2022-07-28T10:44:28.169Z,100633.50
2022-07-28T10:46:57.241Z,100640.25
2022-07-28T10:49:32.343Z,100637.78
2022-07-28T10:52:02.374Z,100639.50
2022-07-28T10:54:41.043Z,100634.84
2022-07-28T10:57:12.056Z,100639.53
2022-07-28T11:00:25.893Z,100645.09
2022-07-28T11:02:53.413Z,100640.34
2022-07-28T11:05:37.217Z,100636.88
2022-07-28T11:08:04.673Z,100646.72
2022-07-28T11:10:44.284Z,100645.03
2022-07-28T11:13:32.756Z,100651.81
2022-07-28T11:16:15.860Z,100641.53
2022-07-28T11:23:46.165Z,100642.72
2022-07-28T11:26:27.704Z,100650.47
2022-07-28T11:28:57.888Z,100646.09
2022-07-28T11:31:46.961Z,100651.47
2022-07-28T11:34:17.466Z,100648.44
2022-07-28T11:37:06.153Z,100651.81
2022-07-28T11:39:42.726Z,100656.91
2022-07-28T11:42:29.783Z,100652.31
2022-07-28T11:45:26.490Z,100655.34
2022-07-28T11:48:19.093Z,100658.63
2022-07-28T11:51:16.107Z,100663.81
2022-07-28T11:53:49.718Z,100665.25
2022-07-28T11:56:23.189Z,100660.56
2022-07-28T11:59:18.104Z,100664.69
2022-07-28T12:01:53.399Z,100665.66
2022-07-28T12:04:27.511Z,100662.47
2022-07-28T12:06:56.041Z,100657.25
2022-07-28T12:09:39.770Z,100667.44
2022-07-28T12:12:09.196Z,100667.44
2022-07-28T12:14:40.198Z,100674.13
2022-07-28T12:17:07.595Z,100674.06
2022-07-28T12:19:34.994Z,100666.00
2022-07-28T12:22:15.732Z,100665.31
2022-07-28T12:24:45.804Z,100682.59
2022-07-28T12:27:14.772Z,100677.72
2022-07-28T12:29:42.731Z,100676.41
2022-07-28T12:32:10.577Z,100678.41
2022-07-28T12:34:40.670Z,100675.63
2022-07-28T12:37:12.481Z,100674.97
2022-07-28T12:39:42.706Z,100676.22
2022-07-28T12:42:12.290Z,100683.47
2022-07-28T12:44:42.407Z,100683.06
2022-07-28T12:47:12.791Z,100682.25
2022-07-28T12:49:42.707Z,100679.72
2022-07-28T12:54:53.596Z,100689.81
2022-07-28T12:57:44.550Z,100698.22
2022-07-28T13:00:19.346Z,100685.13
2022-07-28T13:02:48.499Z,100687.22
2022-07-28T13:05:55.300Z,100693.22
2022-07-28T13:08:24.740Z,100705.84
2022-07-28T13:10:57.170Z,100696.16
2022-07-28T13:13:27.158Z,100687.72
2022-07-28T13:16:16.750Z,100693.38
2022-07-28T13:18:51.261Z,100696.28
2022-07-28T13:21:58.194Z,100697.03
2022-07-28T13:24:28.747Z,100704.03
2022-07-28T13:26:57.387Z,100691.81
2022-07-28T13:29:25.205Z,100701.09
2022-07-28T13:31:54.904Z,100712.69
2022-07-28T13:34:22.428Z,100712.66
2022-07-28T13:36:49.651Z,100697.16
2022-07-28T13:39:17.082Z,100703.94
2022-07-28T13:41:56.421Z,100713.69
2022-07-28T13:44:27.963Z,100711.72
2022-07-28T13:46:56.141Z,100705.66
2022-07-28T13:49:24.356Z,100719.34
2022-07-28T13:51:51.840Z,100714.72
2022-07-28T13:54:20.816Z,100718.03
2022-07-28T13:56:49.175Z,100708.34
2022-07-28T13:59:16.883Z,100721.00
2022-07-28T14:01:49.878Z,100715.88
2022-07-28T14:04:18.858Z,100722.34
2022-07-28T14:06:49.195Z,100733.53
2022-07-28T14:09:18.214Z,100720.78
2022-07-28T14:11:49.379Z,100723.66
2022-07-28T14:14:25.067Z,100729.91
2022-07-28T14:16:54.514Z,100729.94
2022-07-28T14:19:37.749Z,100729.03
2022-07-28T14:22:13.178Z,100733.00
2022-07-28T14:24:42.543Z,100734.28
2022-07-28T14:27:11.303Z,100729.28
2022-07-28T14:29:39.445Z,100715.81
2022-07-28T14:32:07.275Z,100720.13
2022-07-28T14:34:35.452Z,100717.25
2022-07-28T14:37:05.793Z,100711.97
2022-07-28T14:39:38.269Z,100716.34
2022-07-28T14:42:06.696Z,100712.81
2022-07-28T14:44:34.437Z,100721.13
2022-07-28T14:47:02.319Z,100711.06
2022-07-28T14:49:29.747Z,100711.06
2022-07-28T14:51:57.956Z,100717.34
2022-07-28T14:54:25.875Z,100709.69
2022-07-28T14:56:53.107Z,100708.88
2022-07-28T14:59:20.335Z,100710.94
2022-07-28T15:01:48.830Z,100715.41
2022-07-28T15:04:17.440Z,100715.47
2022-07-28T15:06:45.375Z,100719.34
2022-07-28T15:09:13.871Z,100715.78
2022-07-28T15:11:42.068Z,100709.38
2022-07-28T15:14:09.341Z,100718.91
2022-07-28T15:16:36.869Z,100718.91
2022-07-28T15:19:05.023Z,100718.50
2022-07-28T15:21:36.346Z,100728.16
2022-07-28T15:24:04.813Z,100730.91
2022-07-28T15:26:32.155Z,100725.22
2022-07-28T15:28:59.516Z,100728.47
2022-07-28T15:31:27.396Z,100718.56
2022-07-28T15:33:58.244Z,100727.44
2022-07-28T15:36:25.820Z,100729.31
2022-07-28T15:38:53.846Z,100722.78
2022-07-28T15:41:21.164Z,100721.72
2022-07-28T15:43:48.481Z,100722.50
2022-07-28T15:46:16.148Z,100730.69
2022-07-28T15:48:44.710Z,100736.53
2022-07-28T15:51:12.334Z,100735.53
2022-07-28T15:53:41.302Z,100730.25
2022-07-28T15:56:08.978Z,100723.06
2022-07-28T15:58:36.664Z,100728.00
2022-07-28T16:01:04.233Z,100739.44
2022-07-28T16:03:31.462Z,100738.78
2022-07-28T16:05:59.067Z,100736.97
2022-07-28T16:08:27.351Z,100735.69
2022-07-28T16:10:55.102Z,100746.47
2022-07-28T16:13:32.827Z,100745.38
2022-07-28T16:16:14.869Z,100747.72
2022-07-28T16:18:44.106Z,100752.66
2022-07-28T16:21:11.863Z,100744.56
2022-07-28T16:23:39.166Z,100746.28
2022-07-28T16:26:08.743Z,100749.00
2022-07-28T16:28:36.815Z,100743.13
2022-07-28T16:31:04.464Z,100754.25
2022-07-28T16:33:33.614Z,100743.81
2022-07-28T16:36:02.536Z,100753.22
2022-07-28T16:38:30.242Z,100743.69
2022-07-28T16:40:57.565Z,100747.06
2022-07-28T16:43:25.007Z,100745.81
2022-07-28T16:45:52.253Z,100749.06
2022-07-28T16:48:19.523Z,100756.19
2022-07-28T16:50:47.021Z,100762.09
2022-07-28T16:53:14.298Z,100767.09
2022-07-28T16:55:47.009Z,100764.56
2022-07-28T16:58:15.199Z,100762.31
2022-07-28T17:00:42.422Z,100774.34
2022-07-28T17:03:11.008Z,100773.44
2022-07-28T17:05:38.949Z,100762.69
2022-07-28T17:08:06.275Z,100776.22
2022-07-28T17:10:33.525Z,100766.34
2022-07-28T17:13:01.014Z,100770.56
2022-07-28T17:15:28.240Z,100776.56
2022-07-28T17:17:58.168Z,100771.59
2022-07-28T17:20:25.701Z,100773.56
2022-07-28T17:22:52.993Z,100770.63
2022-07-28T17:25:59.245Z,100760.88
2022-07-28T17:28:07.888Z,100767.53
2022-07-28T17:30:35.948Z,100766.97
2022-07-28T17:33:08.783Z,100782.91
2022-07-28T17:35:37.313Z,100790.72
2022-07-28T17:38:06.972Z,100791.00
2022-07-28T17:40:34.455Z,100790.34
2022-07-28T17:43:01.952Z,100794.19
2022-07-28T17:45:29.574Z,100795.56
2022-07-28T17:47:56.806Z,100787.25
2022-07-28T17:50:24.236Z,100797.41
2022-07-28T17:52:51.457Z,100798.28
2022-07-28T17:56:00.758Z,100802.09
2022-07-28T17:58:32.322Z,100802.66
2022-07-28T18:01:10.282Z,100808.81
2022-07-28T18:03:59.836Z,100807.66
2022-07-28T18:06:32.710Z,100810.03
2022-07-28T18:09:07.392Z,100804.13
2022-07-28T18:11:56.834Z,100802.22
2022-07-28T18:14:30.418Z,100806.44
2022-07-28T18:16:58.511Z,100816.28
2022-07-28T18:19:26.723Z,100820.38
2022-07-28T18:21:54.248Z,100816.63
2022-07-28T18:24:22.593Z,100806.28
2022-07-28T18:26:51.713Z,100821.09
2022-07-28T18:29:21.130Z,100821.84
2022-07-28T18:31:51.020Z,100830.63
2022-07-28T18:34:19.205Z,100826.03
2022-07-28T18:36:50.829Z,100827.69
2022-07-28T18:39:18.211Z,100833.53
2022-07-28T18:41:47.818Z,100831.00
2022-07-28T18:44:19.834Z,100832.13
2022-07-28T18:46:47.777Z,100842.69
2022-07-28T18:49:15.349Z,100839.97
2022-07-28T18:51:44.976Z,100834.78
2022-07-28T18:54:18.657Z,100845.88
2022-07-28T18:56:49.507Z,100840.47
2022-07-28T18:59:16.932Z,100847.75
2022-07-28T19:01:44.433Z,100849.13
2022-07-28T19:04:12.872Z,100845.22
2022-07-28T19:06:40.484Z,100858.78
2022-07-28T19:09:07.847Z,100860.97
2022-07-28T19:11:35.312Z,100855.06
2022-07-28T19:14:02.496Z,100857.41
2022-07-28T19:16:29.798Z,100860.16
2022-07-28T19:18:57.619Z,100867.28
2022-07-28T19:21:24.831Z,100864.56
2022-07-28T19:23:53.100Z,100860.50
2022-07-28T19:26:21.700Z,100864.75
2022-07-28T19:28:48.923Z,100866.59
2022-07-28T19:31:16.311Z,100873.38
2022-07-28T19:33:44.302Z,100878.84
2022-07-28T19:36:15.704Z,100879.00
2022-07-28T19:38:44.120Z,100881.53
2022-07-28T19:41:16.490Z,100884.59
2022-07-28T19:43:43.687Z,100873.03
2022-07-28T19:46:11.781Z,100873.34
2022-07-28T19:48:39.593Z,100878.41
2022-07-28T19:51:06.999Z,100875.84
2022-07-28T19:53:35.788Z,100883.38
2022-07-28T19:56:08.911Z,100885.88
2022-07-28T19:58:37.014Z,100886.03
2022-07-28T20:01:05.368Z,100885.81
2022-07-28T20:04:01.862Z,100882.75
2022-07-28T20:06:25.097Z,100874.41
2022-07-28T20:08:54.298Z,100883.56
2022-07-28T20:11:21.673Z,100882.59
2022-07-28T20:13:49.602Z,100884.44
2022-07-28T20:16:17.979Z,100881.84
2022-07-28T20:18:45.243Z,100890.63
2022-07-28T20:21:12.593Z,100884.69
2022-07-28T20:23:41.086Z,100883.94
2022-07-28T20:26:10.139Z,100888.16
2022-07-28T20:28:38.167Z,100890.03
2022-07-28T20:31:07.467Z,100893.06
2022-07-28T20:33:34.708Z,100894.56
2022-07-28T20:36:01.912Z,100889.78
2022-07-28T20:38:29.303Z,100895.06
2022-07-28T20:40:56.801Z,100893.97
2022-07-28T20:43:24.108Z,100891.34
2022-07-28T20:46:05.388Z,100893.00
2022-07-28T20:48:33.003Z,100896.34
2022-07-28T20:51:00.456Z,100891.50
2022-07-28T20:53:28.030Z,100897.34
2022-07-28T20:55:55.249Z,100895.81
2022-07-28T20:58:22.521Z,100904.03
2022-07-28T21:00:51.595Z,100898.84
2022-07-28T21:03:19.311Z,100906.63
2022-07-28T21:05:46.514Z,100907.91
2022-07-28T21:08:17.029Z,100913.03
2022-07-28T21:10:46.020Z,100917.06
2022-07-28T21:13:13.261Z,100912.94
2022-07-28T21:15:40.738Z,100907.75
2022-07-28T21:18:08.070Z,100908.94
2022-07-28T21:20:35.505Z,100907.66
2022-07-28T21:23:03.623Z,100913.53
2022-07-28T21:25:31.970Z,100916.56
2022-07-28T21:28:17.854Z,100918.56
2022-07-28T21:30:46.010Z,100932.16
2022-07-28T21:33:13.809Z,100920.94
2022-07-28T21:35:50.771Z,100917.34
2022-07-28T21:38:18.081Z,100915.97
2022-07-28T21:40:45.303Z,100909.72
2022-07-28T21:43:12.790Z,100922.53
2022-07-28T21:45:40.147Z,100913.19
2022-07-28T21:48:07.577Z,100921.44
2022-07-28T21:50:37.265Z,100927.16
2022-07-28T21:53:04.769Z,100921.34
2022-07-28T21:55:31.981Z,100928.88
2022-07-28T21:57:59.503Z,100937.41
2022-07-28T22:00:26.807Z,100934.16
2022-07-28T22:02:54.016Z,100940.84
2022-07-28T22:05:21.645Z,100938.59
2022-07-28T22:07:49.203Z,100944.00
2022-07-28T22:10:17.553Z,100949.94
2022-07-28T22:12:48.044Z,100946.00
2022-07-28T22:15:15.527Z,100955.78
2022-07-28T22:17:43.033Z,100951.69
2022-07-28T22:20:11.033Z,100956.09
2022-07-28T22:22:38.457Z,100954.53
2022-07-28T22:25:06.373Z,100954.84
2022-07-28T22:27:33.797Z,100959.16
2022-07-28T22:30:01.282Z,100949.19
2022-07-28T22:32:29.270Z,100953.19
2022-07-28T22:34:58.329Z,100944.31
2022-07-28T22:37:25.715Z,100957.56
2022-07-28T22:39:53.102Z,100969.38
2022-07-28T22:42:20.519Z,100966.84
2022-07-28T22:44:48.664Z,100969.78
2022-07-28T22:47:16.088Z,100974.19
2022-07-28T22:49:43.611Z,100981.19
2022-07-28T22:52:10.832Z,100986.00
2022-07-28T22:54:39.657Z,100985.28
2022-07-28T22:57:07.219Z,100984.44
2022-07-28T22:59:38.593Z,100990.97
2022-07-28T23:02:07.996Z,100986.59
2022-07-28T23:04:38.964Z,100980.91
2022-07-28T23:07:12.283Z,100996.09
2022-07-28T23:09:41.602Z,100997.25
2022-07-28T23:12:10.071Z,100999.09
2022-07-28T23:14:37.315Z,100995.84
2022-07-28T23:17:05.553Z,100992.59
2022-07-28T23:19:32.842Z,100991.72
2022-07-28T23:22:00.077Z,100999.81
2022-07-28T23:24:27.495Z,100998.13
2022-07-28T23:26:54.753Z,100999.25
2022-07-28T23:29:22.509Z,100997.56
2022-07-28T23:31:50.051Z,100995.56
2022-07-28T23:34:17.569Z,101008.06
2022-07-28T23:36:45.446Z,101001.97
2022-07-28T23:39:14.307Z,100999.69
2022-07-28T23:41:41.507Z,100994.16
2022-07-28T23:44:08.848Z,101006.81
2022-07-28T23:46:36.361Z,100991.03
2022-07-28T23:49:03.638Z,100991.72
2022-07-28T23:51:46.894Z,100995.44
2022-07-28T23:54:16.779Z,100983.78
2022-07-28T23:56:44.866Z,100988.75
2022-07-28T23:59:14.367Z,100994.16
